createdAt,value
2019-01-21T00:00:02.816Z,998.26
2019-01-21T00:01:02.787Z,998.29
2019-01-21T00:02:02.765Z,998.26
2019-01-21T00:03:02.727Z,998.25
2019-01-21T00:04:02.698Z,998.25
2019-01-21T00:05:02.669Z,998.29
2019-01-21T00:06:02.646Z,998.27
2019-01-21T00:07:02.611Z,998.26
2019-01-21T00:08:02.589Z,998.25
2019-01-21T00:09:02.560Z,998.29
2019-01-21T00:10:02.531Z,998.29
2019-01-21T00:11:02.499Z,998.32
2019-01-21T00:12:02.473Z,998.33
2019-01-21T00:13:02.437Z,998.32
2019-01-21T00:14:02.417Z,998.31
2019-01-21T00:15:02.386Z,998.34
2019-01-21T00:16:02.357Z,998.39
2019-01-21T00:17:02.322Z,998.35
2019-01-21T00:18:02.295Z,998.33
2019-01-21T00:19:02.267Z,998.33
2019-01-21T00:20:02.233Z,998.36
2019-01-21T00:21:02.204Z,998.36
2019-01-21T00:22:02.175Z,998.39
2019-01-21T00:23:02.539Z,998.36
2019-01-21T00:24:02.117Z,998.33
2019-01-21T00:25:02.095Z,998.33
2019-01-21T00:26:02.061Z,998.31
2019-01-21T00:27:02.032Z,998.31
2019-01-21T00:28:02.002Z,998.32
2019-01-21T00:29:01.980Z,998.29
2019-01-21T00:30:01.945Z,998.30
2019-01-21T00:31:01.923Z,998.31
2019-01-21T00:32:01.890Z,998.29
2019-01-21T00:33:01.865Z,998.31
2019-01-21T00:34:01.830Z,998.33
2019-01-21T00:35:01.814Z,998.32
2019-01-21T00:36:01.769Z,998.32
2019-01-21T00:37:03.612Z,998.29
2019-01-21T00:38:01.714Z,998.28
2019-01-21T00:39:01.687Z,998.35
2019-01-21T00:40:01.655Z,998.31
2019-01-21T00:41:01.635Z,998.34
2019-01-21T00:42:01.605Z,998.37
2019-01-21T00:43:01.577Z,998.38
2019-01-21T00:44:01.540Z,998.35
2019-01-21T00:45:01.526Z,998.33
2019-01-21T00:46:01.489Z,998.39
2019-01-21T00:47:01.461Z,998.41
2019-01-21T00:48:01.427Z,998.39
2019-01-21T00:49:01.403Z,998.43
2019-01-21T00:50:01.369Z,998.40
2019-01-21T00:51:01.346Z,998.42
2019-01-21T00:52:01.314Z,998.41
2019-01-21T00:53:01.286Z,998.43
2019-01-21T00:54:01.252Z,998.43
2019-01-21T00:55:01.268Z,998.51
2019-01-21T00:56:01.194Z,998.48
2019-01-21T00:57:01.172Z,998.47
2019-01-21T00:58:01.137Z,998.51
2019-01-21T00:59:01.121Z,998.57
2019-01-21T01:00:01.082Z,998.54
2019-01-21T01:01:01.053Z,998.53
2019-01-21T01:02:01.030Z,998.56
2019-01-21T01:03:00.994Z,998.55
2019-01-21T01:04:00.971Z,998.56
2019-01-21T01:05:00.943Z,998.52
2019-01-21T01:06:00.908Z,998.56
2019-01-21T01:07:00.885Z,998.54
2019-01-21T01:08:00.858Z,998.60
2019-01-21T01:09:00.824Z,998.55
2019-01-21T01:10:00.801Z,998.54
2019-01-21T01:11:00.767Z,998.64
2019-01-21T01:12:00.744Z,998.60
2019-01-21T01:13:00.715Z,998.62
2019-01-21T01:14:00.684Z,998.62
2019-01-21T01:15:00.650Z,998.61
2019-01-21T01:16:00.621Z,998.66
2019-01-21T01:17:00.599Z,998.64
2019-01-21T01:18:00.573Z,998.67
2019-01-21T01:19:00.538Z,998.66
2019-01-21T01:20:00.516Z,998.72
2019-01-21T01:21:00.481Z,998.68
2019-01-21T01:22:00.461Z,998.66
2019-01-21T01:23:00.424Z,998.66
2019-01-21T01:24:00.398Z,998.69
2019-01-21T01:25:00.373Z,998.68
2019-01-21T01:26:00.349Z,998.69
2019-01-21T01:27:00.317Z,998.66
2019-01-21T01:28:00.288Z,998.64
2019-01-21T01:29:00.253Z,998.66
2019-01-21T01:30:00.242Z,998.68
2019-01-21T01:31:00.198Z,998.69
2019-01-21T01:32:00.172Z,998.64
2019-01-21T01:33:00.147Z,998.72
2019-01-21T01:34:00.115Z,998.73
2019-01-21T01:35:00.250Z,998.68
2019-01-21T01:36:00.062Z,998.74
2019-01-21T01:37:00.027Z,998.73
2019-01-21T01:38:00.002Z,998.73
2019-01-21T01:38:59.972Z,998.72
2019-01-21T01:39:59.944Z,998.71
2019-01-21T01:40:59.922Z,998.64
2019-01-21T01:41:59.893Z,998.69
2019-01-21T01:42:59.858Z,998.69
2019-01-21T01:43:59.839Z,998.67
2019-01-21T01:44:59.810Z,998.64
2019-01-21T01:45:59.782Z,998.65
2019-01-21T01:46:59.758Z,998.67
2019-01-21T01:47:59.725Z,998.65
2019-01-21T01:48:59.699Z,998.67
2019-01-21T01:49:59.670Z,998.65
2019-01-21T01:50:59.635Z,998.63
2019-01-21T01:51:59.612Z,998.69
2019-01-21T01:52:59.581Z,998.66
2019-01-21T01:53:59.554Z,998.68
2019-01-21T01:54:59.558Z,998.67
2019-01-21T01:55:59.502Z,998.67
2019-01-21T01:56:59.468Z,998.63
2019-01-21T01:57:59.448Z,998.66
2019-01-21T01:58:59.414Z,998.71
2019-01-21T01:59:59.393Z,998.65
2019-01-21T02:00:59.366Z,998.64
2019-01-21T02:01:59.328Z,998.67
2019-01-21T02:02:59.311Z,998.67
2019-01-21T02:03:59.274Z,998.68
2019-01-21T02:04:59.254Z,998.70
2019-01-21T02:05:59.218Z,998.69
2019-01-21T02:06:59.189Z,998.67
2019-01-21T02:07:59.166Z,998.69
2019-01-21T02:08:59.141Z,998.72
2019-01-21T02:09:59.106Z,998.67
2019-01-21T02:10:59.073Z,998.70
2019-01-21T02:11:59.058Z,998.66
2019-01-21T02:12:59.030Z,998.70
2019-01-21T02:13:59.004Z,998.72
2019-01-21T02:14:58.970Z,998.70
2019-01-21T02:15:58.943Z,998.73
2019-01-21T02:16:58.914Z,998.68
2019-01-21T02:17:58.889Z,998.69
2019-01-21T02:18:58.859Z,998.71
2019-01-21T02:19:58.833Z,998.71
2019-01-21T02:20:58.811Z,998.67
2019-01-21T02:21:58.782Z,998.65
2019-01-21T02:22:58.747Z,998.69
2019-01-21T02:23:58.721Z,998.67
2019-01-21T02:24:58.699Z,998.71
2019-01-21T02:25:58.670Z,998.68
2019-01-21T02:26:58.636Z,998.75
2019-01-21T02:27:58.617Z,998.71
2019-01-21T02:28:58.588Z,998.72
2019-01-21T02:29:58.563Z,998.75
2019-01-21T02:30:58.527Z,998.75
2019-01-21T02:31:58.501Z,998.77
2019-01-21T02:32:58.479Z,998.79
2019-01-21T02:33:58.445Z,998.77
2019-01-21T02:34:58.421Z,998.76
2019-01-21T02:35:58.389Z,998.75
2019-01-21T02:36:58.367Z,998.74
2019-01-21T02:37:58.341Z,998.78
2019-01-21T02:38:58.307Z,998.70
2019-01-21T02:39:58.278Z,998.70
2019-01-21T02:40:58.257Z,998.69
2019-01-21T02:41:58.223Z,998.71
2019-01-21T02:42:58.196Z,998.73
2019-01-21T02:43:58.167Z,998.70
2019-01-21T02:44:58.139Z,998.70
2019-01-21T02:45:58.115Z,998.66
2019-01-21T02:46:58.090Z,998.66
2019-01-21T02:48:00.300Z,998.65
2019-01-21T02:48:58.031Z,998.59
2019-01-21T02:49:58.007Z,998.59
2019-01-21T02:50:57.979Z,998.59
2019-01-21T02:51:57.944Z,998.57
2019-01-21T02:52:57.918Z,998.54
2019-01-21T02:53:57.889Z,998.56
2019-01-21T02:54:57.867Z,998.53
2019-01-21T02:55:57.833Z,998.57
2019-01-21T02:56:57.806Z,998.57
2019-01-21T02:57:57.783Z,998.60
2019-01-21T02:58:57.750Z,998.55
2019-01-21T02:59:57.728Z,998.53
2019-01-21T03:00:57.693Z,998.53
2019-01-21T03:01:57.665Z,998.52
2019-01-21T03:02:57.640Z,998.51
2019-01-21T03:03:57.614Z,998.51
2019-01-21T03:04:57.581Z,998.47
2019-01-21T03:05:57.558Z,998.46
2019-01-21T03:06:57.523Z,998.49
2019-01-21T03:07:57.500Z,998.48
2019-01-21T03:08:57.465Z,998.46
2019-01-21T03:09:57.446Z,998.46
2019-01-21T03:10:57.411Z,998.46
2019-01-21T03:11:57.434Z,998.44
2019-01-21T03:12:57.353Z,998.45
2019-01-21T03:13:57.332Z,998.48
2019-01-21T03:14:57.302Z,998.49
2019-01-21T03:15:57.275Z,998.46
2019-01-21T03:16:57.246Z,998.48
2019-01-21T03:17:57.214Z,998.44
2019-01-21T03:18:57.191Z,998.46
2019-01-21T03:19:57.156Z,998.46
2019-01-21T03:20:57.127Z,998.45
2019-01-21T03:21:57.104Z,998.46
2019-01-21T03:22:57.069Z,998.43
2019-01-21T03:23:57.047Z,998.46
2019-01-21T03:24:57.015Z,998.46
2019-01-21T03:25:56.994Z,998.49
2019-01-21T03:26:56.965Z,998.45
2019-01-21T03:27:56.935Z,998.45
2019-01-21T03:28:56.900Z,998.46
2019-01-21T03:29:56.874Z,998.42
2019-01-21T03:30:56.846Z,998.45
2019-01-21T03:31:56.819Z,998.45
2019-01-21T03:32:56.787Z,998.47
2019-01-21T03:33:56.764Z,998.46
2019-01-21T03:34:56.754Z,998.45
2019-01-21T03:35:56.706Z,998.45
2019-01-21T03:36:56.681Z,998.51
2019-01-21T03:37:56.647Z,998.47
2019-01-21T03:38:56.618Z,998.48
2019-01-21T03:39:56.585Z,998.49
2019-01-21T03:40:56.559Z,998.49
2019-01-21T03:41:56.544Z,998.48
2019-01-21T03:42:56.499Z,998.47
2019-01-21T03:43:56.468Z,998.46
2019-01-21T03:44:56.440Z,998.49
2019-01-21T03:45:56.418Z,998.46
2019-01-21T03:46:56.401Z,998.49
2019-01-21T03:47:56.358Z,998.49
2019-01-21T03:48:56.326Z,998.51
2019-01-21T03:49:56.304Z,998.49
2019-01-21T03:50:56.283Z,998.51
2019-01-21T03:51:56.248Z,998.50
2019-01-21T03:52:56.216Z,998.51
2019-01-21T03:53:56.193Z,998.47
2019-01-21T03:54:56.160Z,998.53
2019-01-21T03:55:56.126Z,998.53
2019-01-21T03:56:56.100Z,998.49
2019-01-21T03:57:56.078Z,998.51
2019-01-21T03:58:56.038Z,998.52
2019-01-21T03:59:56.015Z,998.50
2019-01-21T04:00:55.980Z,998.55
2019-01-21T04:01:55.952Z,998.54
2019-01-21T04:02:55.927Z,998.52
2019-01-21T04:03:55.894Z,998.53
2019-01-21T04:04:55.862Z,998.55
2019-01-21T04:05:55.837Z,998.54
2019-01-21T04:06:55.814Z,998.53
2019-01-21T04:07:56.796Z,998.54
2019-01-21T04:08:55.749Z,998.53
2019-01-21T04:09:55.721Z,998.50
2019-01-21T04:10:55.693Z,998.53
2019-01-21T04:11:55.668Z,998.50
2019-01-21T04:12:55.640Z,998.49
2019-01-21T04:13:55.611Z,998.52
2019-01-21T04:14:55.572Z,998.49
2019-01-21T04:15:55.546Z,998.53
2019-01-21T04:16:55.519Z,998.53
2019-01-21T04:17:55.498Z,998.52
2019-01-21T04:18:55.458Z,998.51
2019-01-21T04:19:55.432Z,998.52
2019-01-21T04:20:55.400Z,998.50
2019-01-21T04:21:55.373Z,998.52
2019-01-21T04:22:55.349Z,998.51
2019-01-21T04:23:55.313Z,998.51
2019-01-21T04:24:55.289Z,998.53
2019-01-21T04:25:55.254Z,998.50
2019-01-21T04:26:55.232Z,998.54
2019-01-21T04:27:55.202Z,998.52
2019-01-21T04:28:55.169Z,998.50
2019-01-21T04:29:55.146Z,998.51
2019-01-21T04:30:55.117Z,998.54
2019-01-21T04:31:55.079Z,998.54
2019-01-21T04:32:55.052Z,998.54
2019-01-21T04:33:55.025Z,998.52
2019-01-21T04:34:54.993Z,998.51
2019-01-21T04:35:54.973Z,998.55
2019-01-21T04:36:54.944Z,998.52
2019-01-21T04:37:54.907Z,998.53
2019-01-21T04:38:54.884Z,998.52
2019-01-21T04:39:54.849Z,998.54
2019-01-21T04:40:54.821Z,998.57
2019-01-21T04:41:54.799Z,998.57
2019-01-21T04:42:54.766Z,998.57
2019-01-21T04:43:54.731Z,998.56
2019-01-21T04:44:54.702Z,998.61
2019-01-21T04:45:54.679Z,998.62
2019-01-21T04:46:54.646Z,998.68
2019-01-21T04:47:54.616Z,998.64
2019-01-21T04:48:54.587Z,998.65
2019-01-21T04:49:54.555Z,998.69
2019-01-21T04:50:54.535Z,998.67
2019-01-21T04:51:54.501Z,998.70
2019-01-21T04:52:54.469Z,998.71
2019-01-21T04:53:54.447Z,998.72
2019-01-21T04:54:54.411Z,998.77
2019-01-21T04:55:54.384Z,998.74
2019-01-21T04:56:54.352Z,998.72
2019-01-21T04:57:54.323Z,998.75
2019-01-21T04:58:54.302Z,998.72
2019-01-21T04:59:54.269Z,998.72
2019-01-21T05:00:54.241Z,998.76
2019-01-21T05:01:54.211Z,998.77
2019-01-21T05:02:54.183Z,998.74
2019-01-21T05:03:54.163Z,998.74
2019-01-21T05:04:54.120Z,998.75
2019-01-21T05:05:54.094Z,998.74
2019-01-21T05:06:54.060Z,998.73
2019-01-21T05:07:54.031Z,998.79
2019-01-21T05:08:54.023Z,998.75
2019-01-21T05:09:53.970Z,998.74
2019-01-21T05:10:53.942Z,998.72
2019-01-21T05:11:53.910Z,998.72
2019-01-21T05:12:53.884Z,998.76
2019-01-21T05:13:53.853Z,998.75
2019-01-21T05:14:53.828Z,998.75
2019-01-21T05:15:53.803Z,998.74
2019-01-21T05:16:53.767Z,998.70
2019-01-21T05:17:53.736Z,998.70
2019-01-21T05:18:53.706Z,998.74
2019-01-21T05:19:53.679Z,998.72
2019-01-21T05:20:53.649Z,998.75
2019-01-21T05:21:53.619Z,998.77
2019-01-21T05:22:53.590Z,998.76
2019-01-21T05:23:53.565Z,998.74
2019-01-21T05:24:53.536Z,998.73
2019-01-21T05:25:53.504Z,998.79
2019-01-21T05:26:53.475Z,998.76
2019-01-21T05:27:53.447Z,998.77
2019-01-21T05:28:53.416Z,998.76
2019-01-21T05:29:53.385Z,998.74
2019-01-21T05:30:53.363Z,998.79
2019-01-21T05:31:53.327Z,998.81
2019-01-21T05:32:53.299Z,998.79
2019-01-21T05:33:53.277Z,998.80
2019-01-21T05:34:53.241Z,998.80
2019-01-21T05:35:53.208Z,998.86
2019-01-21T05:36:53.183Z,998.86
2019-01-21T05:37:53.154Z,998.84
2019-01-21T05:38:53.126Z,998.85
2019-01-21T05:39:53.096Z,998.84
2019-01-21T05:40:53.061Z,998.87
2019-01-21T05:41:53.029Z,998.89
2019-01-21T05:42:53.006Z,998.88
2019-01-21T05:43:52.979Z,998.87
2019-01-21T05:44:52.951Z,998.83
2019-01-21T05:45:52.920Z,998.83
2019-01-21T05:46:52.888Z,998.85
2019-01-21T05:47:52.859Z,998.85
2019-01-21T05:48:52.830Z,998.84
2019-01-21T05:49:52.794Z,998.86
2019-01-21T05:50:52.765Z,998.83
2019-01-21T05:51:52.733Z,998.82
2019-01-21T05:52:52.710Z,998.83
2019-01-21T05:53:52.676Z,998.89
2019-01-21T05:54:52.641Z,998.86
2019-01-21T05:55:52.623Z,998.86
2019-01-21T05:56:52.596Z,998.90
2019-01-21T05:57:52.558Z,998.86
2019-01-21T05:58:52.534Z,998.88
2019-01-21T05:59:52.505Z,998.92
2019-01-21T06:00:52.475Z,998.96
2019-01-21T06:01:52.446Z,998.97
2019-01-21T06:02:52.414Z,998.99
2019-01-21T06:03:52.386Z,999.02
2019-01-21T06:04:52.354Z,999.03
2019-01-21T06:05:52.318Z,999.07
2019-01-21T06:06:52.296Z,999.08
2019-01-21T06:07:52.268Z,999.08
2019-01-21T06:08:52.229Z,999.04
2019-01-21T06:09:52.206Z,999.06
2019-01-21T06:10:52.174Z,999.05
2019-01-21T06:11:52.139Z,999.07
2019-01-21T06:12:52.114Z,999.08
2019-01-21T06:13:52.082Z,999.07
2019-01-21T06:14:52.051Z,999.12
2019-01-21T06:15:52.022Z,999.09
2019-01-21T06:16:51.993Z,999.11
2019-01-21T06:17:51.968Z,999.17
2019-01-21T06:18:57.101Z,999.14
2019-01-21T06:19:51.910Z,999.14
2019-01-21T06:20:51.879Z,999.21
2019-01-21T06:21:51.846Z,999.21
2019-01-21T06:22:51.812Z,999.23
2019-01-21T06:23:51.783Z,999.23
2019-01-21T06:24:51.754Z,999.22
2019-01-21T06:25:51.726Z,999.24
2019-01-21T06:26:51.697Z,999.21
2019-01-21T06:27:51.668Z,999.21
2019-01-21T06:28:51.641Z,999.26
2019-01-21T06:29:51.608Z,999.21
2019-01-21T06:30:51.574Z,999.23
2019-01-21T06:31:51.549Z,999.23
2019-01-21T06:32:51.516Z,999.21
2019-01-21T06:33:51.491Z,999.20
2019-01-21T06:34:51.450Z,999.18
2019-01-21T06:35:51.424Z,999.17
2019-01-21T06:36:51.396Z,999.19
2019-01-21T06:37:51.370Z,999.17
2019-01-21T06:38:51.335Z,999.17
2019-01-21T06:39:51.307Z,999.16
2019-01-21T06:40:51.278Z,999.15
2019-01-21T06:41:51.251Z,999.17
2019-01-21T06:42:51.222Z,999.17
2019-01-21T06:43:51.185Z,999.19
2019-01-21T06:44:51.163Z,999.22
2019-01-21T06:45:51.134Z,999.17
2019-01-21T06:46:51.095Z,999.15
2019-01-21T06:47:51.072Z,999.17
2019-01-21T06:48:51.036Z,999.16
2019-01-21T06:49:51.007Z,999.18
2019-01-21T06:50:50.976Z,999.20
2019-01-21T06:51:50.950Z,999.22
2019-01-21T06:52:50.918Z,999.19
2019-01-21T06:53:50.895Z,999.21
2019-01-21T06:54:50.863Z,999.24
2019-01-21T06:55:50.825Z,999.20
2019-01-21T06:56:50.795Z,999.20
2019-01-21T06:57:50.767Z,999.22
2019-01-21T06:58:50.735Z,999.23
2019-01-21T06:59:50.706Z,999.24
2019-01-21T07:00:50.681Z,999.22
2019-01-21T07:01:50.653Z,999.21
2019-01-21T07:02:50.624Z,999.25
2019-01-21T07:03:50.594Z,999.22
2019-01-21T07:04:50.583Z,999.25
2019-01-21T07:05:50.533Z,999.26
2019-01-21T07:07:50.471Z,999.32
2019-01-21T07:08:50.443Z,999.29
2019-01-21T07:09:50.407Z,999.33
2019-01-21T07:10:50.375Z,999.34
2019-01-21T07:11:50.355Z,999.36
2019-01-21T07:12:50.320Z,999.36
2019-01-21T07:13:50.292Z,999.40
2019-01-21T07:14:50.264Z,999.40
2019-01-21T07:15:50.225Z,999.44
2019-01-21T07:16:50.204Z,999.44
2019-01-21T07:17:50.185Z,999.46
2019-01-21T07:18:50.139Z,999.48
2019-01-21T07:19:50.107Z,999.46
2019-01-21T07:20:50.082Z,999.46
2019-01-21T07:21:50.053Z,999.44
2019-01-21T07:22:50.021Z,999.48
2019-01-21T07:23:49.989Z,999.41
2019-01-21T07:24:49.963Z,999.42
2019-01-21T07:25:49.931Z,999.37
2019-01-21T07:26:49.902Z,999.38
2019-01-21T07:27:49.868Z,999.40
2019-01-21T07:28:49.842Z,999.39
2019-01-21T07:29:49.813Z,999.39
2019-01-21T07:30:49.782Z,999.34
2019-01-21T07:31:49.745Z,999.35
2019-01-21T07:32:49.720Z,999.38
2019-01-21T07:33:49.689Z,999.34
2019-01-21T07:34:49.654Z,999.33
2019-01-21T07:35:49.626Z,999.35
2019-01-21T07:36:49.597Z,999.34
2019-01-21T07:37:49.571Z,999.36
2019-01-21T07:38:49.536Z,999.38
2019-01-21T07:39:49.510Z,999.34
2019-01-21T07:40:49.478Z,999.29
2019-01-21T07:41:49.447Z,999.34
2019-01-21T07:42:49.422Z,999.32
2019-01-21T07:43:49.387Z,999.30
2019-01-21T07:44:49.361Z,999.34
2019-01-21T07:45:49.332Z,999.36
2019-01-21T07:46:49.301Z,999.31
2019-01-21T07:47:49.265Z,999.30
2019-01-21T07:48:49.245Z,999.36
2019-01-21T07:49:49.219Z,999.33
2019-01-21T07:50:49.178Z,999.33
2019-01-21T07:51:49.150Z,999.38
2019-01-21T07:52:49.122Z,999.39
2019-01-21T07:53:49.094Z,999.40
2019-01-21T07:54:49.060Z,999.43
2019-01-21T07:55:49.035Z,999.38
2019-01-21T07:56:48.999Z,999.42
2019-01-21T07:57:48.978Z,999.43
2019-01-21T07:58:48.948Z,999.42
2019-01-21T07:59:48.920Z,999.45
2019-01-21T08:00:48.881Z,999.40
2019-01-21T08:01:48.856Z,999.45
2019-01-21T08:02:48.826Z,999.44
2019-01-21T08:03:48.795Z,999.42
2019-01-21T08:04:48.769Z,999.43
2019-01-21T08:05:48.742Z,999.46
2019-01-21T08:06:48.707Z,999.45
2019-01-21T08:07:48.676Z,999.45
2019-01-21T08:08:48.653Z,999.47
2019-01-21T08:09:48.624Z,999.48
2019-01-21T08:10:48.589Z,999.46
2019-01-21T08:11:48.557Z,999.47
2019-01-21T08:12:48.528Z,999.46
2019-01-21T08:13:48.502Z,999.49
2019-01-21T08:14:48.470Z,999.47
2019-01-21T08:15:48.448Z,999.48
2019-01-21T08:16:48.412Z,999.56
2019-01-21T08:17:48.422Z,999.54
2019-01-21T08:18:48.359Z,999.50
2019-01-21T08:19:48.328Z,999.55
2019-01-21T08:20:48.304Z,999.52
2019-01-21T08:21:48.268Z,999.55
2019-01-21T08:22:48.243Z,999.57
2019-01-21T08:23:48.217Z,999.56
2019-01-21T08:24:48.183Z,999.57
2019-01-21T08:25:48.153Z,999.58
2019-01-21T08:26:48.135Z,999.57
2019-01-21T08:27:48.102Z,999.60
2019-01-21T08:28:48.076Z,999.64
2019-01-21T08:29:48.046Z,999.63
2019-01-21T08:30:48.014Z,999.66
2019-01-21T08:31:47.991Z,999.69
2019-01-21T08:32:47.962Z,999.70
2019-01-21T08:33:47.927Z,999.73
2019-01-21T08:34:47.899Z,999.71
2019-01-21T08:35:47.870Z,999.74
2019-01-21T08:36:47.845Z,999.74
2019-01-21T08:37:47.816Z,999.70
2019-01-21T08:38:47.791Z,999.77
2019-01-21T08:39:48.732Z,999.76
2019-01-21T08:40:47.742Z,999.75
2019-01-21T08:41:47.711Z,999.76
2019-01-21T08:42:47.682Z,999.77
2019-01-21T08:43:47.653Z,999.81
2019-01-21T08:44:47.627Z,999.81
2019-01-21T08:45:47.609Z,999.85
2019-01-21T08:46:47.579Z,999.87
2019-01-21T08:47:47.548Z,999.87
2019-01-21T08:48:47.525Z,999.88
2019-01-21T08:49:47.500Z,999.88
2019-01-21T08:50:47.474Z,999.91
2019-01-21T08:51:47.442Z,999.91
2019-01-21T08:52:47.420Z,999.89
2019-01-21T08:53:47.391Z,999.92
2019-01-21T08:54:47.369Z,999.96
2019-01-21T08:55:47.340Z,999.91
2019-01-21T08:56:47.314Z,999.89
2019-01-21T08:57:47.289Z,999.91
2019-01-21T08:58:47.264Z,999.95
2019-01-21T08:59:47.239Z,999.98
2019-01-21T09:00:47.213Z,999.95
2019-01-21T09:01:47.188Z,1000.02
2019-01-21T09:02:47.156Z,1000.02
2019-01-21T09:03:47.127Z,1000.02
2019-01-21T09:04:47.108Z,1000.06
2019-01-21T09:05:47.089Z,1000.04
2019-01-21T09:06:47.054Z,1000.09
2019-01-21T09:07:47.026Z,1000.11
2019-01-21T09:08:47.000Z,1000.11
2019-01-21T09:09:46.974Z,1000.10
2019-01-21T09:10:46.952Z,1000.15
2019-01-21T09:11:46.920Z,1000.14
2019-01-21T09:12:46.901Z,1000.16
2019-01-21T09:13:46.872Z,1000.18
2019-01-21T09:14:46.845Z,1000.19
2019-01-21T09:15:46.823Z,1000.20
2019-01-21T09:16:46.791Z,1000.19
2019-01-21T09:17:46.775Z,1000.18
2019-01-21T09:18:46.746Z,1000.22
2019-01-21T09:19:46.714Z,1000.18
2019-01-21T09:20:46.697Z,1000.20
2019-01-21T09:21:46.669Z,1000.19
2019-01-21T09:22:46.647Z,1000.18
2019-01-21T09:23:46.612Z,1000.18
2019-01-21T09:24:46.594Z,1000.19
2019-01-21T09:25:46.562Z,1000.20
2019-01-21T09:26:46.532Z,1000.16
2019-01-21T09:27:46.510Z,1000.19
2019-01-21T09:28:46.484Z,1000.18
2019-01-21T09:29:46.461Z,1000.18
2019-01-21T09:30:46.427Z,1000.17
2019-01-21T09:31:46.411Z,1000.17
2019-01-21T09:32:46.385Z,1000.15
2019-01-21T09:33:46.356Z,1000.18
2019-01-21T09:34:46.327Z,1000.18
2019-01-21T09:35:46.302Z,1000.17
2019-01-21T09:36:46.289Z,1000.22
2019-01-21T09:37:46.251Z,1000.27
2019-01-21T09:38:47.255Z,1000.25
2019-01-21T09:39:46.199Z,1000.24
2019-01-21T09:40:46.179Z,1000.28
2019-01-21T09:41:46.156Z,1000.32
2019-01-21T09:42:46.128Z,1000.31
2019-01-21T09:43:46.096Z,1000.30
2019-01-21T09:44:46.077Z,1000.33
2019-01-21T09:45:46.051Z,1000.35
2019-01-21T09:46:46.022Z,1000.35
2019-01-21T09:47:46.001Z,1000.32
2019-01-21T09:48:45.971Z,1000.36
2019-01-21T09:49:45.946Z,1000.35
2019-01-21T09:50:45.914Z,1000.38
2019-01-21T09:51:45.891Z,1000.39
2019-01-21T09:52:45.865Z,1000.38
2019-01-21T09:53:45.837Z,1000.40
2019-01-21T09:54:45.811Z,1000.42
2019-01-21T09:55:45.788Z,1000.48
2019-01-21T09:56:45.766Z,1000.45
2019-01-21T09:57:45.740Z,1000.45
2019-01-21T09:58:45.708Z,1000.44
2019-01-21T09:59:45.689Z,1000.42
2019-01-21T10:00:45.655Z,1000.40
2019-01-21T10:01:45.630Z,1000.45
2019-01-21T10:02:45.611Z,1000.44
2019-01-21T10:03:45.585Z,1000.40
2019-01-21T10:04:45.556Z,1000.38
2019-01-21T10:05:45.536Z,1000.38
2019-01-21T10:06:45.505Z,1000.41
2019-01-21T10:07:45.483Z,1000.41
2019-01-21T10:08:45.458Z,1000.41
2019-01-21T10:09:45.439Z,1000.36
2019-01-21T10:10:45.406Z,1000.42
2019-01-21T10:11:45.378Z,1000.38
2019-01-21T10:12:45.349Z,1000.39
2019-01-21T10:13:45.324Z,1000.42
2019-01-21T10:14:45.305Z,1000.47
2019-01-21T10:15:45.273Z,1000.45
2019-01-21T10:16:45.253Z,1000.43
2019-01-21T10:17:45.226Z,1000.44
2019-01-21T10:18:45.199Z,1000.43
2019-01-21T10:19:50.472Z,1000.39
2019-01-21T10:20:45.148Z,1000.43
2019-01-21T10:21:45.132Z,1000.36
2019-01-21T10:22:45.100Z,1000.36
2019-01-21T10:23:45.081Z,1000.35
2019-01-21T10:24:45.055Z,1000.34
2019-01-21T10:25:45.027Z,1000.37
2019-01-21T10:26:45.002Z,1000.34
2019-01-21T10:27:44.976Z,1000.37
2019-01-21T10:28:44.959Z,1000.36
2019-01-21T10:29:44.929Z,1000.32
2019-01-21T10:30:44.905Z,1000.33
2019-01-21T10:31:44.883Z,1000.34
2019-01-21T10:32:44.855Z,1000.31
2019-01-21T10:33:44.836Z,1000.30
2019-01-21T10:34:44.811Z,1000.30
2019-01-21T10:35:44.785Z,1000.34
2019-01-21T10:36:44.763Z,1000.32
2019-01-21T10:37:44.734Z,1000.34
2019-01-21T10:38:44.712Z,1000.32
2019-01-21T10:39:44.690Z,1000.32
2019-01-21T10:40:44.667Z,1000.31
2019-01-21T10:41:44.642Z,1000.29
2019-01-21T10:42:44.620Z,1000.28
2019-01-21T10:43:44.591Z,1000.32
2019-01-21T10:44:44.572Z,1000.29
2019-01-21T10:45:44.541Z,1000.30
2019-01-21T10:46:44.517Z,1000.27
2019-01-21T10:47:44.495Z,1000.22
2019-01-21T10:48:44.473Z,1000.23
2019-01-21T10:49:44.446Z,1000.23
2019-01-21T10:50:44.420Z,1000.17
2019-01-21T10:51:44.404Z,1000.16
2019-01-21T10:52:44.381Z,1000.12
2019-01-21T10:53:44.352Z,1000.16
2019-01-21T10:54:44.327Z,1000.11
2019-01-21T10:55:44.308Z,1000.05
2019-01-21T10:56:44.290Z,1000.09
2019-01-21T10:57:44.260Z,1000.01
2019-01-21T10:58:44.241Z,1000.04
2019-01-21T10:59:44.213Z,1000.05
2019-01-21T11:00:44.185Z,1000.07
2019-01-21T11:01:44.165Z,1000.04
2019-01-21T11:02:44.137Z,1000.00
2019-01-21T11:03:44.121Z,1000.01
2019-01-21T11:04:44.092Z,1000.03
2019-01-21T11:05:44.079Z,1000.04
2019-01-21T11:06:44.046Z,1000.06
2019-01-21T11:07:44.025Z,1000.03
2019-01-21T11:08:44.003Z,999.97
2019-01-21T11:09:43.989Z,999.97
2019-01-21T11:10:43.950Z,999.98
2019-01-21T11:11:43.935Z,999.93
2019-01-21T11:12:43.906Z,999.89
2019-01-21T11:13:44.410Z,999.89
2019-01-21T11:14:43.863Z,999.85
2019-01-21T11:15:43.839Z,999.87
2019-01-21T11:16:43.822Z,999.82
2019-01-21T11:17:43.800Z,999.83
2019-01-21T11:18:43.774Z,999.83
2019-01-21T11:19:43.745Z,999.82
2019-01-21T11:20:43.723Z,999.81
2019-01-21T11:21:43.707Z,999.81
2019-01-21T11:22:43.674Z,999.85
2019-01-21T11:23:43.664Z,999.82
2019-01-21T11:24:43.636Z,999.83
2019-01-21T11:25:43.607Z,999.82
2019-01-21T11:26:43.598Z,999.86
2019-01-21T11:27:43.569Z,999.86
2019-01-21T11:28:43.547Z,999.87
2019-01-21T11:29:43.524Z,999.86
2019-01-21T11:30:43.501Z,999.86
2019-01-21T11:31:43.474Z,999.82
2019-01-21T11:32:43.450Z,999.83
2019-01-21T11:33:43.441Z,999.83
2019-01-21T11:34:43.402Z,999.77
2019-01-21T11:35:43.379Z,999.72
2019-01-21T11:36:43.364Z,999.71
2019-01-21T11:37:43.338Z,999.73
2019-01-21T11:38:43.324Z,999.70
2019-01-21T11:39:43.300Z,999.71
2019-01-21T11:40:43.271Z,999.70
2019-01-21T11:41:43.253Z,999.64
2019-01-21T11:42:43.231Z,999.65
2019-01-21T11:43:43.206Z,999.67
2019-01-21T11:44:43.186Z,999.66
2019-01-21T11:45:43.168Z,999.65
2019-01-21T11:46:43.135Z,999.65
2019-01-21T11:47:43.119Z,999.59
2019-01-21T11:48:43.293Z,999.59
2019-01-21T11:49:43.077Z,999.59
2019-01-21T11:50:43.056Z,999.61
2019-01-21T11:51:43.034Z,999.59
2019-01-21T11:52:43.011Z,999.56
2019-01-21T11:53:42.991Z,999.56
2019-01-21T11:54:42.963Z,999.56
2019-01-21T11:55:42.940Z,999.60
2019-01-21T11:56:42.918Z,999.60
2019-01-21T11:57:42.902Z,999.59
2019-01-21T11:58:42.880Z,999.54
2019-01-21T11:59:43.157Z,999.55
2019-01-21T12:00:42.836Z,999.58
2019-01-21T12:01:42.809Z,999.52
2019-01-21T12:02:42.793Z,999.52
2019-01-21T12:03:42.772Z,999.50
2019-01-21T12:04:42.744Z,999.50
2019-01-21T12:05:42.721Z,999.49
2019-01-21T12:06:42.704Z,999.48
2019-01-21T12:07:42.682Z,999.48
2019-01-21T12:08:42.660Z,999.48
2019-01-21T12:09:42.641Z,999.44
2019-01-21T12:10:42.612Z,999.48
2019-01-21T12:11:42.593Z,999.47
2019-01-21T12:12:42.570Z,999.46
2019-01-21T12:13:42.548Z,999.43
2019-01-21T12:14:42.532Z,999.41
2019-01-21T12:15:42.506Z,999.43
2019-01-21T12:16:42.484Z,999.42
2019-01-21T12:17:42.471Z,999.43
2019-01-21T12:18:42.447Z,999.46
2019-01-21T12:19:42.418Z,999.42
2019-01-21T12:20:42.395Z,999.42
2019-01-21T12:21:42.383Z,999.42
2019-01-21T12:22:42.361Z,999.49
2019-01-21T12:23:42.341Z,999.48
2019-01-21T12:24:42.316Z,999.48